Time;durP1;ratioP1;P1;durP2;ratioP2;P2;SDS_P1;SDS_P2;PMS_P1;PMS_P2;Temp;Humidity;BMP_temperature;BMP_pressure;BME280_temperature;BME280_humidity;BME280_pressure;Samples;Min_cycle;Max_cycle;Signal;HPM_P1;HPM_P2
2022/06/11 00:01:32;;;;;;;13.45;8.68;;;19.70;74.90;;;;;;5091487;28;20060;-71
2022/06/11 00:04:02;;;;;;;17.10;9.05;;;19.70;75.00;;;;;;5095073;28;20047;-71
2022/06/11 00:06:29;;;;;;;13.20;8.50;;;19.60;75.00;;;;;;5096224;28;20048;-71
2022/06/11 00:08:55;;;;;;;12.02;7.65;;;19.60;75.20;;;;;;5096167;28;20025;-71
2022/06/11 00:11:22;;;;;;;12.25;7.88;;;19.60;75.30;;;;;;5096126;28;20024;-70
2022/06/11 00:13:48;;;;;;;13.88;7.68;;;19.60;75.50;;;;;;5096074;28;20028;-70
2022/06/11 00:16:17;;;;;;;10.57;7.70;;;19.60;75.50;;;;;;5096014;28;20112;-71
2022/06/11 00:18:44;;;;;;;13.35;8.13;;;19.60;75.30;;;;;;5095901;28;20021;-71
2022/06/11 00:21:11;;;;;;;10.18;7.45;;;19.60;75.20;;;;;;5095950;28;20102;-71
2022/06/11 00:23:37;;;;;;;13.38;7.72;;;19.50;75.10;;;;;;5095802;28;20054;-71
2022/06/11 00:26:04;;;;;;;10.98;7.22;;;19.50;75.10;;;;;;5095849;28;20476;-71
2022/06/11 00:28:30;;;;;;;11.40;7.25;;;19.50;74.90;;;;;;5095736;28;20031;-71
2022/06/11 00:30:56;;;;;;;10.82;6.95;;;19.50;75.00;;;;;;5095750;28;20021;-71
2022/06/11 00:33:23;;;;;;;10.60;7.10;;;19.50;75.00;;;;;;5095740;28;20021;-71
2022/06/11 00:35:48;;;;;;;12.13;7.40;;;19.40;75.00;;;;;;5095657;28;20024;-71
2022/06/11 00:38:14;;;;;;;12.10;7.55;;;19.40;74.70;;;;;;5095547;28;20088;-71
2022/06/11 00:40:44;;;;;;;12.43;6.15;;;19.40;74.90;;;;;;5094534;28;20024;-71
2022/06/11 00:43:14;;;;;;;13.07;6.85;;;19.30;74.90;;;;;;5095754;28;20021;-71
2022/06/11 00:45:47;;;;;;;11.00;6.28;;;19.30;74.80;;;;;;5095509;28;20027;-71
2022/06/11 00:48:36;;;;;;;12.80;6.72;;;19.20;74.90;;;;;;5095458;28;20094;-71
2022/06/11 00:51:10;;;;;;;10.95;7.22;;;19.20;74.90;;;;;;5093517;28;20029;-71
2022/06/11 00:53:41;;;;;;;10.05;6.78;;;19.20;75.00;;;;;;5095434;28;20107;-72
2022/06/11 00:56:16;;;;;;;11.43;6.82;;;19.10;75.10;;;;;;5095414;28;20029;-71
2022/06/11 00:58:45;;;;;;;10.95;6.53;;;19.00;75.30;;;;;;5095229;28;20025;-71
2022/06/11 01:01:13;;;;;;;8.57;6.95;;;18.90;75.60;;;;;;5095206;28;20013;-71
2022/06/11 01:03:43;;;;;;;11.55;7.20;;;18.80;76.10;;;;;;5094929;28;20114;-71
2022/06/11 01:06:42;;;;;;;11.85;6.97;;;18.80;76.20;;;;;;5095192;28;20032;-71
2022/06/11 01:09:23;;;;;;;9.95;6.90;;;18.90;75.90;;;;;;5095120;28;20054;-71
2022/06/11 01:12:06;;;;;;;15.10;7.60;;;18.80;75.90;;;;;;5094027;28;20040;-71
2022/06/11 01:14:50;;;;;;;10.65;6.72;;;18.80;75.90;;;;;;5095126;28;20017;-71
2022/06/11 01:17:55;;;;;;;12.68;7.00;;;18.80;75.70;;;;;;5094867;28;20028;-71
2022/06/11 01:20:26;;;;;;;11.35;6.75;;;18.80;75.70;;;;;;5094884;28;20027;-71
2022/06/11 01:23:26;;;;;;;10.95;6.45;;;18.70;75.80;;;;;;5094828;28;20021;-71
2022/06/11 01:26:10;;;;;;;10.68;6.15;;;18.70;75.80;;;;;;5094719;28;20035;-71
2022/06/11 01:29:08;;;;;;;7.97;5.88;;;18.60;75.70;;;;;;5093628;28;20063;-71
2022/06/11 01:31:54;;;;;;;7.80;5.68;;;18.70;75.90;;;;;;5094813;28;20456;-71
2022/06/11 01:34:38;;;;;;;8.75;5.60;;;18.60;75.90;;;;;;5094724;28;20052;-71
2022/06/11 01:37:09;;;;;;;10.15;5.82;;;18.70;75.80;;;;;;5093931;28;20029;-71
2022/06/11 01:39:59;;;;;;;11.27;5.55;;;18.60;75.70;;;;;;5094478;28;20036;-71
2022/06/11 01:42:38;;;;;;;6.40;5.05;;;18.50;75.60;;;;;;5094536;28;20021;-71
2022/06/11 01:45:15;;;;;;;7.90;6.35;;;18.50;75.80;;;;;;5094485;28;20081;-71
2022/06/11 01:47:42;;;;;;;11.10;5.57;;;18.50;75.80;;;;;;5094332;28;20100;-71
2022/06/11 01:50:11;;;;;;;10.05;5.32;;;18.60;75.90;;;;;;5094221;28;20089;-71
2022/06/11 01:52:46;;;;;;;7.50;5.40;;;18.60;75.80;;;;;;5094218;28;20031;-71
2022/06/11 01:55:33;;;;;;;11.60;5.88;;;18.60;75.70;;;;;;5094299;28;20032;-71
2022/06/11 01:58:30;;;;;;;8.20;5.20;;;18.50;75.60;;;;;;5093984;28;20020;-71
2022/06/11 02:01:25;;;;;;;8.48;5.78;;;18.50;75.90;;;;;;5094017;28;20029;-71
2022/06/11 02:04:04;;;;;;;7.43;5.32;;;18.60;75.80;;;;;;5092673;28;20096;-71
2022/06/11 02:07:01;;;;;;;8.88;5.90;;;18.50;75.50;;;;;;5094077;28;20501;-71
2022/06/11 02:09:49;;;;;;;10.48;5.65;;;18.50;75.40;;;;;;5094027;28;20084;-71
2022/06/11 02:12:38;;;;;;;9.30;5.78;;;18.40;75.80;;;;;;5093854;28;20029;-71
2022/06/11 02:15:15;;;;;;;7.25;5.80;;;18.30;76.20;;;;;;5093787;28;20057;-71
2022/06/11 02:17:46;;;;;;;11.30;6.15;;;18.20;76.20;;;;;;5093679;28;20056;-71
2022/06/11 02:20:16;;;;;;;8.30;5.65;;;18.10;76.70;;;;;;5093731;28;20083;-71
2022/06/11 02:22:50;;;;;;;9.63;6.07;;;18.00;76.70;;;;;;5093660;28;20031;-71
2022/06/11 02:25:24;;;;;;;8.77;5.80;;;17.80;77.70;;;;;;5093619;28;20082;-71
2022/06/11 02:27:54;;;;;;;9.10;6.10;;;17.70;78.30;;;;;;5093530;28;20066;-71
2022/06/11 02:30:23;;;;;;;11.30;6.50;;;17.60;78.70;;;;;;5093604;28;20021;-71
2022/06/11 02:32:49;;;;;;;9.13;5.78;;;17.60;79.00;;;;;;5093513;28;20029;-71
2022/06/11 02:35:41;;;;;;;8.65;5.80;;;17.50;79.20;;;;;;5092468;28;20029;-71
2022/06/11 02:38:11;;;;;;;10.35;6.00;;;17.50;80.20;;;;;;5093470;28;20023;-71
2022/06/11 02:41:00;;;;;;;7.15;5.53;;;17.50;79.50;;;;;;5093392;28;20084;-71
2022/06/11 02:43:27;;;;;;;7.30;5.70;;;17.60;79.50;;;;;;5093406;28;20027;-71
2022/06/11 02:45:53;;;;;;;9.30;5.65;;;17.60;79.30;;;;;;5093332;28;20084;-71
2022/06/11 02:48:20;;;;;;;11.18;5.45;;;17.70;79.10;;;;;;5092415;28;20090;-71
2022/06/11 02:50:46;;;;;;;10.15;5.90;;;17.80;78.90;;;;;;5093286;28;20024;-71
2022/06/11 02:53:13;;;;;;;6.93;5.65;;;17.80;78.70;;;;;;5093246;28;20035;-71
2022/06/11 02:55:41;;;;;;;9.75;5.60;;;17.80;79.60;;;;;;5093253;28;20387;-71
2022/06/11 02:58:08;;;;;;;8.23;5.53;;;17.90;78.50;;;;;;5093109;28;20029;-71
2022/06/11 03:00:38;;;;;;;8.48;5.63;;;17.90;78.20;;;;;;5093179;28;20021;-71
2022/06/11 03:03:04;;;;;;;7.55;5.68;;;17.90;78.20;;;;;;5092957;28;20105;-71
2022/06/11 03:05:32;;;;;;;10.32;5.38;;;17.90;78.30;;;;;;5093123;28;20029;-71
2022/06/11 03:08:00;;;;;;;7.18;4.93;;;17.90;78.10;;;;;;5093105;28;20040;-71
2022/06/11 03:10:27;;;;;;;7.70;5.35;;;17.90;78.10;;;;;;5093069;28;20020;-71
2022/06/11 03:12:53;;;;;;;6.85;4.75;;;18.00;77.90;;;;;;5093064;28;20097;-71
2022/06/11 03:15:21;;;;;;;7.00;5.10;;;17.90;77.90;;;;;;5093035;28;20035;-71
2022/06/11 03:17:49;;;;;;;9.93;5.70;;;17.90;77.90;;;;;;5092935;28;20048;-71
2022/06/11 03:20:16;;;;;;;9.02;5.15;;;17.90;78.00;;;;;;5091962;28;20096;-71
2022/06/11 03:22:43;;;;;;;8.73;5.40;;;17.80;78.00;;;;;;5092983;28;20046;-71
2022/06/11 03:25:09;;;;;;;7.50;4.97;;;17.70;78.00;;;;;;5092970;28;20020;-71
2022/06/11 03:27:36;;;;;;;7.05;5.30;;;17.70;78.20;;;;;;5092937;28;20025;-71
2022/06/11 03:30:03;;;;;;;7.25;5.30;;;17.70;78.20;;;;;;5092880;28;20029;-71
2022/06/11 03:32:29;;;;;;;8.60;5.45;;;17.70;78.50;;;;;;5092835;28;20056;-71
2022/06/11 03:34:55;;;;;;;10.00;5.50;;;17.70;78.40;;;;;;5092873;28;20051;-71
2022/06/11 03:37:20;;;;;;;8.95;4.88;;;17.70;78.20;;;;;;5092754;28;20411;-71
2022/06/11 03:39:46;;;;;;;6.75;5.13;;;17.70;78.30;;;;;;5092804;28;20021;-71
2022/06/11 03:42:13;;;;;;;7.25;4.68;;;17.60;78.30;;;;;;5092900;28;20031;-71
2022/06/11 03:44:39;;;;;;;7.25;4.65;;;17.60;78.40;;;;;;5092760;28;20076;-71
2022/06/11 03:47:05;;;;;;;8.32;4.88;;;17.60;78.40;;;;;;5092755;28;20032;-71
2022/06/11 03:49:31;;;;;;;7.13;4.60;;;17.50;78.60;;;;;;5092722;28;20033;-72
2022/06/11 03:51:56;;;;;;;7.90;4.35;;;17.50;78.80;;;;;;5092684;28;20021;-71
2022/06/11 03:54:22;;;;;;;7.38;4.10;;;17.50;79.10;;;;;;5092623;28;20033;-71
2022/06/11 03:56:49;;;;;;;5.95;4.40;;;17.50;79.30;;;;;;5092639;28;20101;-72
2022/06/11 03:59:16;;;;;;;8.68;4.47;;;17.50;79.50;;;;;;5094365;28;20020;-72
2022/06/11 04:01:43;;;;;;;7.38;4.18;;;17.50;79.50;;;;;;5096334;28;20024;-72
2022/06/11 04:04:13;;;;;;;8.27;4.35;;;17.40;80.70;;;;;;5096152;28;20040;-71
2022/06/11 04:06:47;;;;;;;5.95;3.92;;;17.50;79.90;;;;;;5096230;28;20107;-71
2022/06/11 04:09:18;;;;;;;9.90;4.10;;;17.50;80.10;;;;;;5096374;28;20032;-72
2022/06/11 04:11:43;;;;;;;7.45;4.30;;;17.50;80.00;;;;;;5096187;28;20024;-71
2022/06/11 04:14:10;;;;;;;5.45;3.28;;;17.60;79.70;;;;;;5096116;28;20032;-72
2022/06/11 04:16:42;;;;;;;9.73;4.15;;;17.60;79.30;;;;;;5096027;28;20033;-71
2022/06/11 04:19:12;;;;;;;9.80;3.80;;;17.70;79.00;;;;;;5095969;28;20027;-71
2022/06/11 04:21:38;;;;;;;7.10;3.55;;;17.70;78.80;;;;;;5096159;28;20025;-71
2022/06/11 04:24:06;;;;;;;8.80;3.75;;;17.70;78.80;;;;;;5095944;28;20024;-72
2022/06/11 04:26:36;;;;;;;14.05;3.88;;;17.80;78.60;;;;;;5095896;28;20036;-71
2022/06/11 04:29:05;;;;;;;5.65;3.50;;;17.80;78.50;;;;;;5095811;28;20076;-71
2022/06/11 04:31:33;;;;;;;6.80;3.63;;;17.80;78.10;;;;;;5095808;28;20028;-71
2022/06/11 04:33:59;;;;;;;7.18;3.30;;;17.80;77.70;;;;;;5095779;28;20099;-71
2022/06/11 04:36:28;;;;;;;4.95;3.28;;;17.80;77.40;;;;;;5095683;28;20024;-72
2022/06/11 04:38:53;;;;;;;6.53;3.10;;;17.80;78.00;;;;;;5095604;28;20024;-70
2022/06/11 04:41:20;;;;;;;8.40;3.58;;;17.80;76.10;;;;;;5095736;28;20152;-70
2022/06/11 04:43:46;;;;;;;6.75;2.95;;;17.80;76.50;;;;;;5095609;28;20029;-70
2022/06/11 04:46:12;;;;;;;8.57;3.33;;;17.80;76.60;;;;;;5095510;28;20023;-71
2022/06/11 04:48:39;;;;;;;7.25;2.90;;;17.80;76.40;;;;;;5095506;28;20029;-71
2022/06/11 04:51:05;;;;;;;6.80;3.00;;;17.80;76.00;;;;;;5094374;28;20123;-70
2022/06/11 04:53:31;;;;;;;7.72;3.13;;;17.80;75.80;;;;;;5095474;28;20039;-71
2022/06/11 04:55:57;;;;;;;8.35;2.85;;;17.80;75.60;;;;;;5094388;28;20095;-71
2022/06/11 04:58:22;;;;;;;7.22;2.97;;;17.80;75.50;;;;;;5094351;28;20036;-71
2022/06/11 05:00:49;;;;;;;5.78;3.05;;;17.80;75.40;;;;;;5095251;28;20032;-71
2022/06/11 05:03:14;;;;;;;5.28;2.63;;;17.80;75.10;;;;;;5094964;28;20044;-71
2022/06/11 05:05:41;;;;;;;8.23;2.80;;;17.90;75.00;;;;;;5095164;28;20031;-71
2022/06/11 05:08:07;;;;;;;7.30;3.00;;;17.90;75.10;;;;;;5094903;28;20039;-72
2022/06/11 05:10:34;;;;;;;5.38;2.67;;;17.90;75.00;;;;;;5093820;28;20032;-72
2022/06/11 05:13:00;;;;;;;6.60;2.88;;;17.90;74.40;;;;;;5095017;28;20020;-71
2022/06/11 05:15:27;;;;;;;7.80;2.50;;;18.00;72.90;;;;;;5094969;28;20024;-71
2022/06/11 05:17:52;;;;;;;7.40;2.60;;;17.90;72.90;;;;;;5093806;28;20060;-71
2022/06/11 05:20:19;;;;;;;6.28;2.33;;;17.90;73.10;;;;;;5094886;28;20025;-71
2022/06/11 05:22:45;;;;;;;10.15;2.75;;;18.00;73.00;;;;;;5093758;28;20017;-71
2022/06/11 05:25:12;;;;;;;7.35;2.40;;;18.00;72.70;;;;;;5094713;28;20020;-71
2022/06/11 05:27:40;;;;;;;9.30;3.28;;;18.00;72.80;;;;;;5094545;28;20024;-71
2022/06/11 05:30:15;;;;;;;8.63;2.40;;;18.00;72.60;;;;;;5094691;28;20025;-71
2022/06/11 05:32:42;;;;;;;8.10;2.53;;;18.00;72.20;;;;;;5094645;28;20035;-71
2022/06/11 05:35:12;;;;;;;6.28;2.47;;;18.00;71.70;;;;;;5094591;28;20120;-72
2022/06/11 05:37:38;;;;;;;7.43;2.42;;;18.00;71.60;;;;;;5094364;28;20523;-72
2022/06/11 05:40:06;;;;;;;9.30;2.30;;;18.00;71.70;;;;;;5094412;28;20016;-72
2022/06/11 05:42:32;;;;;;;8.05;2.70;;;18.10;71.00;;;;;;5094369;28;20029;-72
2022/06/11 05:44:58;;;;;;;6.70;2.55;;;18.10;71.10;;;;;;5094312;28;20047;-72
2022/06/11 05:47:26;;;;;;;8.77;2.50;;;18.00;70.50;;;;;;5094255;28;20051;-72
2022/06/11 05:49:58;;;;;;;7.65;2.20;;;18.00;70.70;;;;;;5094234;28;20017;-71
2022/06/11 05:52:29;;;;;;;7.70;2.33;;;18.00;70.80;;;;;;5094259;28;20072;-71
2022/06/11 05:54:55;;;;;;;6.85;2.30;;;18.10;70.70;;;;;;5094205;28;20476;-72
2022/06/11 05:57:24;;;;;;;12.07;2.92;;;18.10;70.60;;;;;;5094049;28;20025;-71
2022/06/11 06:00:01;;;;;;;9.10;2.55;;;18.10;70.40;;;;;;5094085;28;20054;-71
2022/06/11 06:02:27;;;;;;;9.32;2.63;;;18.10;70.10;;;;;;5093891;28;20060;-71
2022/06/11 06:04:53;;;;;;;6.47;2.28;;;18.10;70.10;;;;;;5094037;28;20025;-72
2022/06/11 06:07:19;;;;;;;10.75;2.58;;;18.00;70.60;;;;;;5093921;28;20032;-72
2022/06/11 06:09:44;;;;;;;7.03;2.30;;;18.00;69.90;;;;;;5093913;28;20041;-72
2022/06/11 06:12:10;;;;;;;13.80;2.67;;;18.10;70.00;;;;;;5093838;28;20438;-71
2022/06/11 06:14:36;;;;;;;13.20;2.35;;;18.10;69.70;;;;;;5092855;28;20028;-72
2022/06/11 06:17:02;;;;;;;8.48;2.40;;;18.20;70.20;;;;;;5093734;28;20021;-72
2022/06/11 06:19:28;;;;;;;9.90;1.98;;;18.30;69.60;;;;;;5093743;28;20043;-72
2022/06/11 06:21:54;;;;;;;10.88;2.35;;;18.30;68.70;;;;;;5093496;28;20016;-72
2022/06/11 06:24:19;;;;;;;6.47;2.10;;;18.30;69.10;;;;;;5093633;28;20044;-72
2022/06/11 06:26:45;;;;;;;10.50;2.42;;;18.30;68.70;;;;;;5093614;28;20028;-72
2022/06/11 06:29:11;;;;;;;8.45;2.20;;;18.40;69.20;;;;;;5092503;28;20033;-72
2022/06/11 06:31:37;;;;;;;9.63;2.42;;;18.40;68.20;;;;;;5093546;28;20095;-72
2022/06/11 06:34:03;;;;;;;12.32;2.38;;;18.40;68.10;;;;;;5093523;28;20031;-72
2022/06/11 06:36:30;;;;;;;8.48;2.45;;;18.40;68.10;;;;;;5093463;28;20044;-72
2022/06/11 06:38:56;;;;;;;13.10;2.42;;;18.40;68.70;;;;;;5093351;28;20035;-72
2022/06/11 06:41:22;;;;;;;10.88;2.60;;;18.50;69.20;;;;;;5093368;28;20021;-72
2022/06/11 06:43:48;;;;;;;12.25;2.85;;;18.60;69.50;;;;;;5093242;28;20059;-73
2022/06/11 06:46:16;;;;;;;10.27;2.40;;;18.70;68.70;;;;;;5093316;28;20021;-72
2022/06/11 06:48:43;;;;;;;11.93;2.85;;;18.70;68.80;;;;;;5093374;28;20043;-72
2022/06/11 06:51:09;;;;;;;15.07;2.63;;;18.70;68.30;;;;;;5093315;28;20046;-72
2022/06/11 06:53:39;;;;;;;13.80;2.50;;;18.70;68.10;;;;;;5093266;28;20024;-72
2022/06/11 06:56:06;;;;;;;12.85;3.33;;;18.70;67.70;;;;;;5093224;28;20032;-72
2022/06/11 06:58:31;;;;;;;13.70;2.92;;;18.70;67.30;;;;;;5093039;28;20035;-72
2022/06/11 07:00:57;;;;;;;17.02;3.10;;;18.70;68.30;;;;;;5093147;28;20029;-72
2022/06/11 07:03:23;;;;;;;12.35;2.60;;;18.70;68.20;;;;;;5093001;28;20064;-71
2022/06/11 07:05:49;;;;;;;14.55;3.42;;;18.70;68.10;;;;;;5093120;28;20436;-71
2022/06/11 07:08:15;;;;;;;17.67;3.53;;;18.70;68.00;;;;;;5093260;28;20530;-72
2022/06/11 07:10:47;;;;;;;9.13;2.60;;;18.70;67.90;;;;;;5093074;28;20046;-71
2022/06/11 07:13:12;;;;;;;13.35;3.30;;;18.80;68.10;;;;;;5093121;28;20024;-71
2022/06/11 07:15:38;;;;;;;10.38;2.92;;;18.80;68.50;;;;;;5093092;28;20024;-72
2022/06/11 07:18:10;;;;;;;12.43;3.15;;;18.90;68.40;;;;;;5092953;28;20039;-71
2022/06/11 07:20:37;;;;;;;12.82;3.13;;;18.90;68.60;;;;;;5093159;28;20025;-71
2022/06/11 07:23:11;;;;;;;13.15;2.92;;;19.00;69.20;;;;;;5093002;28;20036;-71
2022/06/11 07:25:39;;;;;;;12.88;2.83;;;19.00;68.90;;;;;;5092977;28;20074;-72
2022/06/11 07:28:18;;;;;;;13.70;3.17;;;19.00;69.40;;;;;;5092874;28;20029;-72
2022/06/11 07:30:45;;;;;;;14.25;3.58;;;19.10;68.30;;;;;;5092922;28;20024;-72
2022/06/11 07:33:15;;;;;;;13.90;3.25;;;19.10;67.80;;;;;;5092949;28;20020;-72
2022/06/11 07:35:41;;;;;;;11.48;2.75;;;19.20;67.80;;;;;;5095917;28;20028;-73
2022/06/11 07:38:11;;;;;;;11.68;2.42;;;19.30;68.60;;;;;;5096765;28;20039;-72
2022/06/11 07:40:37;;;;;;;9.73;2.95;;;19.40;67.30;;;;;;5096786;28;20031;-72
2022/06/11 07:43:06;;;;;;;11.52;2.60;;;19.50;66.40;;;;;;5096747;28;20072;-72
2022/06/11 07:45:36;;;;;;;15.63;2.92;;;19.60;66.60;;;;;;5096626;28;20080;-72
2022/06/11 07:48:02;;;;;;;12.63;2.90;;;19.60;66.90;;;;;;5096690;28;20017;-72
2022/06/11 07:50:32;;;;;;;13.85;3.45;;;19.60;65.70;;;;;;5096578;28;20025;-72
2022/06/11 07:52:58;;;;;;;14.60;3.00;;;19.60;65.00;;;;;;5096545;28;20080;-72
2022/06/11 07:55:25;;;;;;;14.20;3.25;;;19.60;64.90;;;;;;5095426;28;20039;-73
2022/06/11 07:57:51;;;;;;;11.68;3.00;;;19.70;65.10;;;;;;5095334;28;20124;-73
2022/06/11 08:00:21;;;;;;;16.00;3.15;;;19.60;65.80;;;;;;5096379;28;20017;-72
2022/06/11 08:02:47;;;;;;;12.43;2.75;;;19.70;65.80;;;;;;5096182;28;20399;-72
2022/06/11 08:05:13;;;;;;;14.25;3.00;;;19.70;65.50;;;;;;5096164;28;20036;-72
2022/06/11 08:07:38;;;;;;;17.70;3.30;;;19.70;65.60;;;;;;5096217;28;20037;-72
2022/06/11 08:10:05;;;;;;;14.00;2.85;;;19.80;66.40;;;;;;5095176;28;20095;-72
2022/06/11 08:12:30;;;;;;;11.18;3.00;;;19.90;67.40;;;;;;5096129;28;20036;-72
2022/06/11 08:14:59;;;;;;;14.50;4.20;;;19.90;66.60;;;;;;5096064;28;20059;-72
2022/06/11 08:17:29;;;;;;;15.43;3.25;;;20.00;66.00;;;;;;5095983;28;20029;-72
2022/06/11 08:19:55;;;;;;;12.35;2.88;;;20.10;65.80;;;;;;5096058;28;20024;-72
2022/06/11 08:22:21;;;;;;;9.45;2.83;;;20.20;66.20;;;;;;5094897;28;20043;-72
2022/06/11 08:24:47;;;;;;;12.88;3.03;;;20.30;66.20;;;;;;5095999;28;20021;-69
2022/06/11 08:27:14;;;;;;;14.23;3.00;;;20.30;64.70;;;;;;5095914;28;20025;-70
2022/06/11 08:29:39;;;;;;;11.98;2.97;;;20.40;63.40;;;;;;5095827;28;20029;-69
2022/06/11 08:32:06;;;;;;;11.77;2.92;;;20.50;63.90;;;;;;5095801;28;20459;-69
2022/06/11 08:34:36;;;;;;;12.27;2.55;;;20.60;64.00;;;;;;5095817;28;20052;-69
2022/06/11 08:37:01;;;;;;;11.85;2.67;;;20.70;63.20;;;;;;5095694;28;20055;-69
2022/06/11 08:39:27;;;;;;;14.00;2.90;;;20.80;62.20;;;;;;5095603;28;20024;-69
2022/06/11 08:41:56;;;;;;;14.88;3.85;;;20.60;61.30;;;;;;5094643;28;20043;-69
2022/06/11 08:44:22;;;;;;;9.50;2.92;;;20.60;61.10;;;;;;5095292;28;20016;-69
2022/06/11 08:46:50;;;;;;;10.93;2.80;;;20.60;65.10;;;;;;5094493;28;20040;-69
2022/06/11 08:49:33;;;;;;;10.52;3.03;;;20.60;61.10;;;;;;5095546;28;20024;-69
2022/06/11 08:52:22;;;;;;;11.57;3.47;;;20.70;60.10;;;;;;5095402;28;20055;-69
2022/06/11 08:54:48;;;;;;;15.77;2.70;;;20.80;60.80;;;;;;5095448;28;20023;-69
2022/06/11 08:57:31;;;;;;;11.68;2.40;;;20.80;60.90;;;;;;5095329;28;20024;-69
2022/06/11 09:00:15;;;;;;;8.30;2.42;;;20.70;60.40;;;;;;5095260;28;20447;-69
2022/06/11 09:03:12;;;;;;;14.80;3.28;;;20.80;59.10;;;;;;5095209;28;20043;-69
2022/06/11 09:06:21;;;;;;;13.90;2.58;;;20.90;60.00;;;;;;5095232;28;20032;-69
2022/06/11 09:09:11;;;;;;;10.65;2.17;;;20.90;57.30;;;;;;5095167;28;20039;-69
2022/06/11 09:12:04;;;;;;;9.15;2.47;;;21.00;58.20;;;;;;5095220;28;20028;-70
2022/06/11 09:14:54;;;;;;;11.25;2.15;;;20.90;56.70;;;;;;5095272;28;20028;-69
2022/06/11 09:18:02;;;;;;;8.02;2.13;;;20.80;56.00;;;;;;5094077;28;20025;-70
2022/06/11 09:20:46;;;;;;;10.18;2.38;;;20.90;56.80;;;;;;5095089;28;20027;-69
2022/06/11 09:23:24;;;;;;;10.48;2.15;;;20.90;56.90;;;;;;5094989;28;20017;-69
2022/06/11 09:26:07;;;;;;;15.45;3.03;;;21.00;57.10;;;;;;5093830;28;20032;-69
2022/06/11 09:29:10;;;;;;;12.88;2.70;;;20.90;57.00;;;;;;5094775;28;20032;-69
2022/06/11 09:31:41;;;;;;;12.63;2.83;;;21.00;58.90;;;;;;5094702;28;20059;-69
2022/06/11 09:34:32;;;;;;;12.40;2.55;;;21.10;58.20;;;;;;5093623;28;20028;-69
2022/06/11 09:37:12;;;;;;;9.73;2.60;;;21.30;57.00;;;;;;5094732;28;20035;-69
2022/06/11 09:39:42;;;;;;;12.25;2.65;;;21.30;59.60;;;;;;5094582;28;20377;-69
2022/06/11 09:42:39;;;;;;;9.15;2.72;;;21.30;59.20;;;;;;5094454;28;20017;-69
2022/06/11 09:45:23;;;;;;;12.23;2.65;;;21.30;57.60;;;;;;5094524;28;20032;-70
2022/06/11 09:47:51;;;;;;;11.48;2.38;;;21.20;59.30;;;;;;5094325;28;20074;-69
2022/06/11 09:50:32;;;;;;;11.18;2.25;;;21.30;60.00;;;;;;5094427;28;20020;-69
2022/06/11 09:53:14;;;;;;;12.45;2.92;;;21.40;59.40;;;;;;5094290;28;20028;-69
2022/06/11 09:55:40;;;;;;;11.07;2.72;;;21.30;60.50;;;;;;5093171;28;20025;-69
2022/06/11 09:58:08;;;;;;;11.55;2.90;;;21.40;61.20;;;;;;5093650;28;20035;-69
2022/06/11 10:00:43;;;;;;;13.55;3.17;;;21.60;57.80;;;;;;5094108;28;20043;-69
2022/06/11 10:03:22;;;;;;;12.32;3.70;;;21.60;57.70;;;;;;5093899;28;20060;-70
2022/06/11 10:06:07;;;;;;;16.33;3.30;;;21.60;56.70;;;;;;5094003;28;20040;-69
2022/06/11 10:08:56;;;;;;;11.05;3.10;;;21.70;58.00;;;;;;5094126;28;20032;-69
2022/06/11 10:11:54;;;;;;;13.82;4.00;;;21.70;57.40;;;;;;5093903;28;20020;-69
2022/06/11 10:14:52;;;;;;;9.15;2.67;;;21.80;58.90;;;;;;5093899;28;20027;-69
2022/06/11 10:17:39;;;;;;;11.90;3.63;;;21.80;56.70;;;;;;5093805;28;20025;-69
2022/06/11 10:20:26;;;;;;;12.00;3.05;;;21.80;59.30;;;;;;5093901;28;20507;-69
2022/06/11 10:23:01;;;;;;;14.20;3.17;;;21.90;56.90;;;;;;5093819;28;20032;-69
2022/06/11 10:25:47;;;;;;;11.90;3.28;;;21.80;59.50;;;;;;5093847;28;20032;-69
2022/06/11 10:28:19;;;;;;;14.80;3.47;;;21.90;58.90;;;;;;5093700;28;20020;-69
2022/06/11 10:30:54;;;;;;;13.65;3.20;;;21.80;56.70;;;;;;5093639;28;20025;-70
2022/06/11 10:33:24;;;;;;;12.57;3.10;;;21.70;57.60;;;;;;5093702;28;20047;-69
2022/06/11 10:36:00;;;;;;;14.30;3.33;;;21.70;56.70;;;;;;5092546;28;20025;-69
2022/06/11 10:38:46;;;;;;;12.13;3.30;;;21.80;58.00;;;;;;5093453;28;20080;-69
2022/06/11 10:41:37;;;;;;;11.65;3.03;;;21.80;58.60;;;;;;5092483;28;20025;-69
2022/06/11 10:44:17;;;;;;;13.95;3.47;;;22.00;59.20;;;;;;5061907;28;20036;-69
2022/06/11 10:46:42;;;;;;;12.73;3.28;;;22.20;58.90;;;;;;5093405;28;20021;-69
2022/06/11 10:49:17;;;;;;;9.45;2.45;;;22.40;58.00;;;;;;5093368;28;20059;-69
2022/06/11 10:51:53;;;;;;;7.30;2.03;;;22.50;57.00;;;;;;5093420;28;20031;-69
2022/06/11 10:54:24;;;;;;;5.65;1.33;;;22.40;52.80;;;;;;5093306;28;20048;-69
2022/06/11 10:56:51;;;;;;;8.45;2.05;;;22.40;47.60;;;;;;5093284;28;20031;-69
2022/06/11 10:59:32;;;;;;;10.30;2.00;;;22.30;52.00;;;;;;5093146;28;20024;-70
2022/06/11 11:02:16;;;;;;;11.55;2.47;;;22.40;52.20;;;;;;5093199;28;20028;-68
2022/06/11 11:05:06;;;;;;;8.35;2.22;;;22.50;51.30;;;;;;5093040;28;20053;-69
2022/06/11 11:07:52;;;;;;;13.45;2.42;;;22.60;52.60;;;;;;5093051;28;20036;-68
2022/06/11 11:10:40;;;;;;;10.27;2.45;;;22.70;54.40;;;;;;5092868;28;20043;-68
2022/06/11 11:13:19;;;;;;;9.57;2.53;;;22.70;53.20;;;;;;5083574;28;20135;-68
2022/06/11 11:15:55;;;;;;;6.63;2.55;;;22.60;53.60;;;;;;5093123;28;20017;-68
2022/06/11 11:18:27;;;;;;;9.52;2.40;;;22.60;53.90;;;;;;5092982;28;20047;-68
2022/06/11 11:20:56;;;;;;;11.57;2.75;;;22.60;52.80;;;;;;5093006;28;20016;-68
2022/06/11 11:23:29;;;;;;;10.50;2.60;;;22.60;54.00;;;;;;5092924;28;20017;-68
2022/06/11 11:26:00;;;;;;;12.65;2.58;;;22.70;54.40;;;;;;5092930;28;20107;-68
2022/06/11 11:28:34;;;;;;;10.55;2.85;;;22.80;53.90;;;;;;5092885;28;20025;-68
2022/06/11 11:31:09;;;;;;;10.82;2.53;;;22.90;53.40;;;;;;5092962;28;20084;-68
2022/06/11 11:33:42;;;;;;;9.68;2.17;;;22.90;51.80;;;;;;5092923;28;20082;-69
2022/06/11 11:36:22;;;;;;;12.00;2.75;;;23.00;54.10;;;;;;5092944;28;20020;-68
2022/06/11 11:39:12;;;;;;;11.05;3.22;;;23.10;52.90;;;;;;5092796;28;20091;-68
2022/06/11 11:41:38;;;;;;;16.52;2.55;;;23.10;53.40;;;;;;5092937;28;20070;-68
2022/06/11 11:44:04;;;;;;;10.98;2.17;;;23.10;51.40;;;;;;5092855;28;20029;-68
2022/06/11 11:46:35;;;;;;;7.57;2.08;;;23.10;52.30;;;;;;5092803;28;20035;-68
2022/06/11 11:49:03;;;;;;;11.30;2.58;;;23.20;52.50;;;;;;5092742;28;20028;-68
2022/06/11 11:51:37;;;;;;;5.82;1.52;;;23.30;52.20;;;;;;5092764;28;20033;-71
2022/06/11 11:54:11;;;;;;;5.72;1.50;;;23.40;50.70;;;;;;5092826;28;20031;-69
2022/06/11 11:56:39;;;;;;;8.95;1.83;;;23.60;48.90;;;;;;5092897;28;20021;-69
2022/06/11 11:59:29;;;;;;;10.55;1.98;;;23.70;49.30;;;;;;5092532;28;20059;-69
2022/06/11 12:02:03;;;;;;;6.07;1.83;;;23.80;48.30;;;;;;5092644;28;20017;-70
2022/06/11 12:04:49;;;;;;;8.50;2.40;;;23.80;49.80;;;;;;5092473;28;20037;-69
2022/06/11 12:07:16;;;;;;;5.55;1.90;;;24.00;48.80;;;;;;5091600;28;20075;-69
2022/06/11 12:09:52;;;;;;;13.95;2.88;;;23.90;51.40;;;;;;5091592;28;20032;-69
2022/06/11 12:12:27;;;;;;;8.57;2.25;;;24.00;49.60;;;;;;5092555;28;20031;-69
2022/06/11 12:14:59;;;;;;;11.50;2.88;;;24.20;49.30;;;;;;5092500;28;20028;-69
2022/06/11 12:17:50;;;;;;;8.80;2.73;;;24.30;48.50;;;;;;5092398;28;20039;-69
2022/06/11 12:20:33;;;;;;;9.38;2.65;;;24.20;49.40;;;;;;5094262;28;20081;-69
2022/06/11 12:23:24;;;;;;;9.60;2.53;;;24.30;50.20;;;;;;5096148;28;20029;-69
2022/06/11 12:25:56;;;;;;;11.60;2.80;;;24.20;47.40;;;;;;5096098;28;20479;-69
2022/06/11 12:28:28;;;;;;;9.98;2.47;;;24.20;49.20;;;;;;5094905;28;20024;-69
2022/06/11 12:30:54;;;;;;;;;;;24.30;51.30;;;;;;5096244;28;20028;-69
2022/06/11 12:33:19;;;;;;;10.27;2.85;;;24.40;50.00;;;;;;5095848;28;19908;-69
2022/06/11 12:36:16;;;;;;;10.68;2.60;;;24.30;50.50;;;;;;5095814;28;20048;-69
2022/06/11 12:39:08;;;;;;;10.27;2.65;;;24.30;49.70;;;;;;5095628;28;20020;-69
2022/06/11 12:41:41;;;;;;;11.83;3.10;;;24.40;49.40;;;;;;5092792;28;20033;-69
2022/06/11 12:44:19;;;;;;;9.50;2.80;;;24.50;48.70;;;;;;5095681;28;20261;-69
2022/06/11 12:47:01;;;;;;;8.68;2.60;;;24.50;48.80;;;;;;5095703;28;20020;-69
2022/06/11 12:50:04;;;;;;;10.57;3.38;;;24.30;50.50;;;;;;5095692;28;20028;-70
2022/06/11 12:53:01;;;;;;;12.05;2.90;;;24.20;49.80;;;;;;5095471;28;20071;-70
2022/06/11 12:56:04;;;;;;;8.95;2.38;;;24.50;49.60;;;;;;5095552;28;20070;-69
2022/06/11 12:58:40;;;;;;;10.20;2.97;;;24.70;50.50;;;;;;5095319;28;20041;-70
2022/06/11 13:01:30;;;;;;;8.30;2.88;;;24.80;47.90;;;;;;5095356;28;20023;-69
2022/06/11 13:04:19;;;;;;;12.10;3.53;;;24.70;48.10;;;;;;5095074;28;20059;-69
2022/06/11 13:07:11;;;;;;;11.68;3.55;;;24.50;48.90;;;;;;5095267;28;20108;-69
2022/06/11 13:09:51;;;;;;;12.98;3.60;;;24.30;49.80;;;;;;5095379;28;20029;-69
2022/06/11 13:12:42;;;;;;;15.85;3.53;;;24.20;51.90;;;;;;5095327;28;20032;-69